Αναφορές Αεροδρομίων

 

KSJC - San Jose, California, USA
Distance from station: ΒΑ 14km
Ενημερώθηκε: 20/07/2024 17:53
Few Clouds
Few Clouds
 Ανεμος από ΒΔ
Ανεμος: ΒΔ 7 km/h
Θερμοκρασία: 20°C
Σημείο Δρόσου: 14°C
Υγρασία: 69%
Βαρόμετρο: 1014.2 hPa
Clouds: Few Clouds
Visibility: 16 km
Cloud details: Few Clouds 1372 m
Few Clouds 3048 m
2024/07/20 14:53 KSJC 201453Z 32004KT 10SM FEW045 FEW100 20/14 A2995 RMK AO2 SLP140 T02000139 53011
KNUQ - Moffett Nas/Mtn, California, USA
Distance from station: Β 14km
Ενημερώθηκε: 20/07/2024 18:15
Αίθριος
Αίθριος
 Ανεμος από Β
Ανεμος: Β 7 km/h
Θερμοκρασία: 18°C
Σημείο Δρόσου: 15°C
Υγρασία: 83%
Βαρόμετρο: 1014.6 hPa
Clouds: Αίθριος
Visibility: 14 km
2024/07/20 15:15 KNUQ 201515Z AUTO 36004KT 9SM CLR 18/15 A2996 RMK AO2
 
KPAO - Palo Alto, California, USA
Distance from station: ΒΒΔ 23km
Ενημερώθηκε: 20/07/2024 17:47
Αίθριος
Αίθριος
 Ανεμος από ΒΔ
Ανεμος: ΒΔ 7 km/h
Θερμοκρασία: 18°C
Σημείο Δρόσου: 13°C
Υγρασία: 73%
Βαρόμετρο: 1014.2 hPa
Clouds: Αίθριος
Visibility: 16 km
2024/07/20 14:47 KPAO 201447Z 32004KT 10SM SKC 18/13 A2995
KRHV - San Jose/Reid, California, USA
Distance from station: ΑΒΑ 19km
Ενημερώθηκε: 20/07/2024 17:47
Αίθριος
Αίθριος
 Ανεμος από varies
Ανεμος: varies 7 km/h
Θερμοκρασία: 20°C
Σημείο Δρόσου: 12°C
Υγρασία: 60%
Βαρόμετρο: 1014.2 hPa
Clouds: Αίθριος
Visibility: 16 km
2024/07/20 14:47 KRHV 201447Z VRB04KT 10SM SKC 20/12 A2995
 
KOAK - Oakland, California, USA
Distance from station: ΒΒΔ 50km
Ενημερώθηκε: 20/07/2024 17:53
Μερικώς νεφελώδης
Μερικώς νεφελώδης
 Ανεμος από Β
Ανεμος: Β 6 km/h
Θερμοκρασία: 18°C
Σημείο Δρόσου: 15°C
Υγρασία: 83%
Βαρόμετρο: 1014.6 hPa
Clouds: Μερικώς νεφελώδης
Visibility: 16 km
Cloud details: Few Clouds 4572 m
Μερικώς νεφελώδης 6706 m
2024/07/20 14:53 KOAK 201453Z 35003KT 10SM FEW150 SCT220 18/15 A2996 RMK AO2 SLP145 T01830150 53012
KSQL - San Carlos Airpo, California, USA
Distance from station: ΒΔ 34km
Ενημερώθηκε: 20/07/2024 17:47
Haze, Αίθριος
Haze, Αίθριος
 Ανεμος από ΒΔ
Ανεμος: ΒΔ 7 km/h
Θερμοκρασία: 18°C
Σημείο Δρόσου: 13°C
Υγρασία: 73%
Βαρόμετρο: 1014.6 hPa
Περίληψη: Haze
Clouds: Αίθριος
Visibility: 11 km
2024/07/20 14:47 KSQL 201447Z 32004KT 7SM HZ CLR 18/13 A2996
 
KSFO - San Francisco, California, USA
Distance from station: ΒΔ 49km
Ενημερώθηκε: 20/07/2024 17:56
Μερικώς νεφελώδης
Μερικώς νεφελώδης
 Ανεμος από ΔΒΔ
Ανεμος: ΔΒΔ 7 km/h
Θερμοκρασία: 17°C
Σημείο Δρόσου: 13°C
Υγρασία: 77%
Βαρόμετρο: 1014.2 hPa
Clouds: Μερικώς νεφελώδης
Visibility: 16 km
Cloud details: Few Clouds 183 m
Μερικώς νεφελώδης 6096 m
2024/07/20 14:56 KSFO 201456Z 30004KT 10SM FEW006 SCT200 17/13 A2995 RMK AO2 SLP141 T01670128 53011 $
KE16 - San Martin, California, USA
Distance from station: ΑΝΑ 43km
Ενημερώθηκε: 20/07/2024 18:15
Αίθριος
Αίθριος
 Ανεμος από ΝΑ
Ανεμος: ΝΑ 19 km/h
Θερμοκρασία: 17°C
Σημείο Δρόσου: 13°C
Υγρασία: 77%
Βαρόμετρο: 1015.6 hPa
Clouds: Αίθριος
Visibility: 16 km
2024/07/20 15:15 KE16 201515Z AUTO 14010KT 10SM CLR 17/13 A2999 RMK AO2
 
KWVI - Watsonville, California, USA
Distance from station: ΝΝΑ 44km
Ενημερώθηκε: 20/07/2024 18:05
Mist, Συννεφιά
Mist, Συννεφιά
 Ανεμος από Α
Ανεμος: Α 6 km/h
Θερμοκρασία: 14°C
Σημείο Δρόσου: 13°C
Υγρασία: 94%
Βαρόμετρο: 1015.6 hPa
Περίληψη: Mist
Clouds: Συννεφιά
Visibility: 6 km
Cloud details: Συννεφιά 91 m
2024/07/20 15:05 KWVI 201505Z AUTO 10003KT 4SM BR OVC003 14/13 A2999 RMK AO2 T01390133
KHAF - Half Moon Bay, California, USA
Distance from station: ΔΒΔ 50km
Ενημερώθηκε: 20/07/2024 18:35
Mist, Σχεδόν νεφελώδης
Mist, Σχεδόν νεφελώδης
 Ανεμος από ΝΔ
Ανεμος: ΝΔ 7 km/h
Θερμοκρασία: 15°C
Σημείο Δρόσου: 14°C
Υγρασία: 94%
Βαρόμετρο: 1015.6 hPa
Περίληψη: Mist
Clouds: Σχεδόν νεφελώδης
Visibility: 6 km
Cloud details: Σχεδόν νεφελώδης 274 m
2024/07/20 15:35 KHAF 201535Z AUTO 22004KT 4SM BR BKN009 15/14 A2999 RMK AO2
 
KHWD - Hayward, California, USA
Distance from station: Β 44km
Ενημερώθηκε: 20/07/2024 17:54
Αίθριος
Αίθριος
 Ανεμος από ΒΔ
Ανεμος: ΒΔ 6 km/h
Θερμοκρασία: 18°C
Σημείο Δρόσου: 13°C
Υγρασία: 73%
Βαρόμετρο: 1014.2 hPa
Clouds: Αίθριος
Visibility: 16 km
2024/07/20 14:54 KHWD 201454Z 31003KT 10SM CLR 18/13 A2995 RMK AO2 SLP149 T01830133 53012
KLVK - Livermore, California, USA
Distance from station: ΒΒΑ 51km
Ενημερώθηκε: 20/07/2024 17:53
Αίθριος
Αίθριος
 Ανεμος από calm
Ανεμος: Απνοια
Θερμοκρασία: 21°C
Σημείο Δρόσου: 12°C
Υγρασία: 57%
Βαρόμετρο: 1013.5 hPa
Clouds: Αίθριος
Visibility: 16 km
2024/07/20 14:53 KLVK 201453Z 00000KT 10SM CLR 21/12 A2993 RMK AO2 SLP129 T02110117 53013 $